sensor_id;sensor_type;location;lat;lon;timestamp;P1;durP1;ratioP1;P2;durP2;ratioP2
12437;SDS011;6283;51.330;12.374;2023-06-14T00:03:28;3.37;;;2.20;;
12437;SDS011;6283;51.330;12.374;2023-06-14T00:05:56;2.93;;;2.10;;
12437;SDS011;6283;51.330;12.374;2023-06-14T00:08:22;2.57;;;2.23;;
12437;SDS011;6283;51.330;12.374;2023-06-14T00:10:49;1.90;;;1.80;;
12437;SDS011;6283;51.330;12.374;2023-06-14T00:13:15;3.23;;;2.53;;
12437;SDS011;6283;51.330;12.374;2023-06-14T00:15:41;3.37;;;2.43;;
12437;SDS011;6283;51.330;12.374;2023-06-14T00:18:07;3.23;;;2.10;;
12437;SDS011;6283;51.330;12.374;2023-06-14T00:20:36;3.13;;;2.00;;
12437;SDS011;6283;51.330;12.374;2023-06-14T00:23:02;3.57;;;2.17;;
12437;SDS011;6283;51.330;12.374;2023-06-14T00:25:28;3.40;;;2.30;;
12437;SDS011;6283;51.330;12.374;2023-06-14T00:27:54;2.57;;;1.90;;
12437;SDS011;6283;51.330;12.374;2023-06-14T00:30:20;2.43;;;2.20;;
12437;SDS011;6283;51.330;12.374;2023-06-14T00:32:46;2.37;;;1.97;;
12437;SDS011;6283;51.330;12.374;2023-06-14T00:35:13;2.20;;;1.97;;
12437;SDS011;6283;51.330;12.374;2023-06-14T00:37:39;2.13;;;1.93;;
12437;SDS011;6283;51.330;12.374;2023-06-14T00:40:05;2.37;;;2.17;;
12437;SDS011;6283;51.330;12.374;2023-06-14T00:42:31;2.30;;;2.10;;
12437;SDS011;6283;51.330;12.374;2023-06-14T00:44:57;2.10;;;2.00;;
12437;SDS011;6283;51.330;12.374;2023-06-14T00:47:23;2.47;;;2.27;;
12437;SDS011;6283;51.330;12.374;2023-06-14T00:49:50;3.80;;;2.40;;
12437;SDS011;6283;51.330;12.374;2023-06-14T00:52:16;3.87;;;2.07;;
12437;SDS011;6283;51.330;12.374;2023-06-14T00:54:42;2.37;;;2.17;;
12437;SDS011;6283;51.330;12.374;2023-06-14T00:57:09;2.17;;;2.00;;
12437;SDS011;6283;51.330;12.374;2023-06-14T00:59:45;2.63;;;2.20;;
12437;SDS011;6283;51.330;12.374;2023-06-14T01:02:12;2.47;;;2.27;;
12437;SDS011;6283;51.330;12.374;2023-06-14T01:04:42;3.17;;;2.30;;
12437;SDS011;6283;51.330;12.374;2023-06-14T01:13:02;2.40;;;2.20;;
12437;SDS011;6283;51.330;12.374;2023-06-14T01:15:40;3.13;;;2.50;;
12437;SDS011;6283;51.330;12.374;2023-06-14T01:18:07;4.07;;;2.90;;
12437;SDS011;6283;51.330;12.374;2023-06-14T01:20:42;2.60;;;2.37;;
12437;SDS011;6283;51.330;12.374;2023-06-14T01:23:09;4.03;;;2.70;;
12437;SDS011;6283;51.330;12.374;2023-06-14T01:25:37;3.93;;;2.70;;
12437;SDS011;6283;51.330;12.374;2023-06-14T01:28:04;4.07;;;2.47;;
12437;SDS011;6283;51.330;12.374;2023-06-14T01:30:36;3.30;;;2.80;;
12437;SDS011;6283;51.330;12.374;2023-06-14T01:33:04;2.23;;;2.10;;
12437;SDS011;6283;51.330;12.374;2023-06-14T01:35:30;2.63;;;2.43;;
12437;SDS011;6283;51.330;12.374;2023-06-14T01:37:56;4.53;;;2.50;;
12437;SDS011;6283;51.330;12.374;2023-06-14T01:40:22;4.10;;;2.87;;
12437;SDS011;6283;51.330;12.374;2023-06-14T01:42:49;3.03;;;2.40;;
12437;SDS011;6283;51.330;12.374;2023-06-14T01:45:17;4.03;;;2.80;;
12437;SDS011;6283;51.330;12.374;2023-06-14T01:47:44;3.07;;;2.30;;
12437;SDS011;6283;51.330;12.374;2023-06-14T01:50:11;2.73;;;2.47;;
12437;SDS011;6283;51.330;12.374;2023-06-14T01:52:37;2.90;;;2.30;;
12437;SDS011;6283;51.330;12.374;2023-06-14T01:55:04;2.90;;;2.47;;
12437;SDS011;6283;51.330;12.374;2023-06-14T01:57:30;2.50;;;2.23;;
12437;SDS011;6283;51.330;12.374;2023-06-14T01:59:56;2.30;;;2.10;;
12437;SDS011;6283;51.330;12.374;2023-06-14T02:02:22;3.43;;;2.63;;
12437;SDS011;6283;51.330;12.374;2023-06-14T02:04:47;2.83;;;2.63;;
12437;SDS011;6283;51.330;12.374;2023-06-14T02:07:13;2.80;;;2.50;;
12437;SDS011;6283;51.330;12.374;2023-06-14T02:09:40;3.20;;;2.73;;
12437;SDS011;6283;51.330;12.374;2023-06-14T02:12:06;3.37;;;2.63;;
12437;SDS011;6283;51.330;12.374;2023-06-14T02:14:32;3.33;;;2.57;;
12437;SDS011;6283;51.330;12.374;2023-06-14T02:16:58;2.97;;;2.70;;
12437;SDS011;6283;51.330;12.374;2023-06-14T02:19:26;2.60;;;2.20;;
12437;SDS011;6283;51.330;12.374;2023-06-14T02:21:51;2.40;;;2.20;;
12437;SDS011;6283;51.330;12.374;2023-06-14T02:24:17;2.80;;;2.40;;
12437;SDS011;6283;51.330;12.374;2023-06-14T02:26:43;2.60;;;2.40;;
12437;SDS011;6283;51.330;12.374;2023-06-14T02:29:08;2.50;;;2.30;;
12437;SDS011;6283;51.330;12.374;2023-06-14T02:31:36;2.80;;;2.47;;
12437;SDS011;6283;51.330;12.374;2023-06-14T02:34:02;3.43;;;3.13;;
12437;SDS011;6283;51.330;12.374;2023-06-14T02:36:27;2.43;;;2.30;;
12437;SDS011;6283;51.330;12.374;2023-06-14T02:38:55;2.50;;;2.30;;
12437;SDS011;6283;51.330;12.374;2023-06-14T02:41:22;4.03;;;2.50;;
12437;SDS011;6283;51.330;12.374;2023-06-14T02:43:49;2.33;;;2.13;;
12437;SDS011;6283;51.330;12.374;2023-06-14T02:46:15;2.63;;;2.43;;
12437;SDS011;6283;51.330;12.374;2023-06-14T02:48:40;3.40;;;2.50;;
12437;SDS011;6283;51.330;12.374;2023-06-14T02:51:06;6.30;;;2.57;;
12437;SDS011;6283;51.330;12.374;2023-06-14T02:53:33;2.80;;;2.33;;
12437;SDS011;6283;51.330;12.374;2023-06-14T02:55:59;4.47;;;2.47;;
12437;SDS011;6283;51.330;12.374;2023-06-14T02:58:26;3.93;;;2.40;;
12437;SDS011;6283;51.330;12.374;2023-06-14T03:00:51;2.47;;;2.17;;
12437;SDS011;6283;51.330;12.374;2023-06-14T03:03:20;3.00;;;2.80;;
12437;SDS011;6283;51.330;12.374;2023-06-14T03:05:46;2.50;;;2.30;;
12437;SDS011;6283;51.330;12.374;2023-06-14T03:08:14;2.30;;;2.10;;
12437;SDS011;6283;51.330;12.374;2023-06-14T03:10:47;2.90;;;2.50;;
12437;SDS011;6283;51.330;12.374;2023-06-14T03:13:13;3.00;;;2.70;;
12437;SDS011;6283;51.330;12.374;2023-06-14T03:15:41;2.80;;;2.53;;
12437;SDS011;6283;51.330;12.374;2023-06-14T03:18:07;3.60;;;2.53;;
12437;SDS011;6283;51.330;12.374;2023-06-14T03:20:34;3.63;;;2.40;;
12437;SDS011;6283;51.330;12.374;2023-06-14T03:23:01;2.63;;;2.43;;
12437;SDS011;6283;51.330;12.374;2023-06-14T03:25:27;3.60;;;2.50;;
12437;SDS011;6283;51.330;12.374;2023-06-14T03:27:54;2.50;;;2.30;;
12437;SDS011;6283;51.330;12.374;2023-06-14T03:30:20;2.57;;;2.37;;
12437;SDS011;6283;51.330;12.374;2023-06-14T03:32:46;2.93;;;2.30;;
12437;SDS011;6283;51.330;12.374;2023-06-14T03:35:12;3.00;;;2.30;;
12437;SDS011;6283;51.330;12.374;2023-06-14T03:37:42;2.80;;;2.50;;
12437;SDS011;6283;51.330;12.374;2023-06-14T03:40:08;2.50;;;2.30;;
12437;SDS011;6283;51.330;12.374;2023-06-14T03:42:35;2.77;;;2.40;;
12437;SDS011;6283;51.330;12.374;2023-06-14T03:45:00;3.00;;;2.53;;
12437;SDS011;6283;51.330;12.374;2023-06-14T03:47:26;3.30;;;2.60;;
12437;SDS011;6283;51.330;12.374;2023-06-14T03:49:52;2.53;;;2.10;;
12437;SDS011;6283;51.330;12.374;2023-06-14T03:52:18;3.40;;;2.17;;
12437;SDS011;6283;51.330;12.374;2023-06-14T03:54:43;3.00;;;2.63;;
12437;SDS011;6283;51.330;12.374;2023-06-14T03:57:09;2.77;;;2.57;;
12437;SDS011;6283;51.330;12.374;2023-06-14T03:59:35;3.10;;;2.50;;
12437;SDS011;6283;51.330;12.374;2023-06-14T04:02:01;3.23;;;2.67;;
12437;SDS011;6283;51.330;12.374;2023-06-14T04:04:27;3.33;;;2.37;;
12437;SDS011;6283;51.330;12.374;2023-06-14T04:06:54;3.63;;;2.67;;
12437;SDS011;6283;51.330;12.374;2023-06-14T04:09:21;2.50;;;2.30;;
12437;SDS011;6283;51.330;12.374;2023-06-14T04:11:49;3.40;;;2.60;;
12437;SDS011;6283;51.330;12.374;2023-06-14T04:14:16;2.67;;;2.47;;
12437;SDS011;6283;51.330;12.374;2023-06-14T04:16:43;2.67;;;2.47;;
12437;SDS011;6283;51.330;12.374;2023-06-14T04:19:09;3.13;;;2.83;;
12437;SDS011;6283;51.330;12.374;2023-06-14T04:21:34;3.23;;;2.93;;
12437;SDS011;6283;51.330;12.374;2023-06-14T04:24:00;3.63;;;2.73;;
12437;SDS011;6283;51.330;12.374;2023-06-14T04:26:27;3.30;;;2.77;;
12437;SDS011;6283;51.330;12.374;2023-06-14T04:28:55;3.10;;;2.80;;
12437;SDS011;6283;51.330;12.374;2023-06-14T04:31:22;3.40;;;2.90;;
12437;SDS011;6283;51.330;12.374;2023-06-14T04:33:50;4.53;;;2.70;;
12437;SDS011;6283;51.330;12.374;2023-06-14T04:36:18;3.63;;;3.00;;
12437;SDS011;6283;51.330;12.374;2023-06-14T04:38:43;3.47;;;2.93;;
12437;SDS011;6283;51.330;12.374;2023-06-14T04:41:11;2.80;;;2.60;;
12437;SDS011;6283;51.330;12.374;2023-06-14T04:43:37;4.37;;;3.20;;
12437;SDS011;6283;51.330;12.374;2023-06-14T04:46:04;3.40;;;3.00;;
12437;SDS011;6283;51.330;12.374;2023-06-14T04:48:39;2.77;;;2.50;;
12437;SDS011;6283;51.330;12.374;2023-06-14T04:51:06;3.40;;;3.00;;
12437;SDS011;6283;51.330;12.374;2023-06-14T04:53:32;3.43;;;2.97;;
12437;SDS011;6283;51.330;12.374;2023-06-14T04:55:58;3.43;;;2.97;;
12437;SDS011;6283;51.330;12.374;2023-06-14T04:58:25;4.73;;;3.37;;
12437;SDS011;6283;51.330;12.374;2023-06-14T05:00:52;5.20;;;2.90;;
12437;SDS011;6283;51.330;12.374;2023-06-14T05:03:18;4.47;;;2.97;;
12437;SDS011;6283;51.330;12.374;2023-06-14T05:05:46;3.23;;;2.93;;
12437;SDS011;6283;51.330;12.374;2023-06-14T05:08:11;3.80;;;3.30;;
12437;SDS011;6283;51.330;12.374;2023-06-14T05:10:38;4.17;;;3.17;;
12437;SDS011;6283;51.330;12.374;2023-06-14T05:13:03;3.37;;;3.00;;
12437;SDS011;6283;51.330;12.374;2023-06-14T05:15:29;3.37;;;3.03;;
12437;SDS011;6283;51.330;12.374;2023-06-14T05:17:55;4.43;;;3.50;;
12437;SDS011;6283;51.330;12.374;2023-06-14T05:20:24;4.20;;;3.00;;
12437;SDS011;6283;51.330;12.374;2023-06-14T05:22:53;3.57;;;3.03;;
12437;SDS011;6283;51.330;12.374;2023-06-14T05:25:19;3.70;;;3.40;;
12437;SDS011;6283;51.330;12.374;2023-06-14T05:27:45;6.93;;;3.70;;
12437;SDS011;6283;51.330;12.374;2023-06-14T05:30:12;3.83;;;3.53;;
12437;SDS011;6283;51.330;12.374;2023-06-14T05:32:39;4.50;;;3.40;;
12437;SDS011;6283;51.330;12.374;2023-06-14T05:35:08;4.00;;;3.70;;
12437;SDS011;6283;51.330;12.374;2023-06-14T05:37:33;3.80;;;3.50;;
12437;SDS011;6283;51.330;12.374;2023-06-14T05:39:59;4.20;;;3.40;;
12437;SDS011;6283;51.330;12.374;2023-06-14T05:42:25;4.27;;;3.83;;
12437;SDS011;6283;51.330;12.374;2023-06-14T05:44:50;4.33;;;3.30;;
12437;SDS011;6283;51.330;12.374;2023-06-14T05:47:16;3.73;;;3.43;;
12437;SDS011;6283;51.330;12.374;2023-06-14T05:49:41;5.60;;;3.87;;
12437;SDS011;6283;51.330;12.374;2023-06-14T05:52:07;4.50;;;4.10;;
12437;SDS011;6283;51.330;12.374;2023-06-14T05:54:33;4.43;;;3.53;;
12437;SDS011;6283;51.330;12.374;2023-06-14T05:56:59;4.47;;;4.07;;
12437;SDS011;6283;51.330;12.374;2023-06-14T05:59:28;5.93;;;3.50;;
12437;SDS011;6283;51.330;12.374;2023-06-14T06:01:54;4.27;;;3.63;;
12437;SDS011;6283;51.330;12.374;2023-06-14T06:04:20;4.45;;;3.80;;
12437;SDS011;6283;51.330;12.374;2023-06-14T06:06:46;4.93;;;4.43;;
12437;SDS011;6283;51.330;12.374;2023-06-14T06:09:12;5.25;;;4.13;;
12437;SDS011;6283;51.330;12.374;2023-06-14T06:11:39;4.35;;;3.95;;
12437;SDS011;6283;51.330;12.374;2023-06-14T06:14:05;6.50;;;4.30;;
12437;SDS011;6283;51.330;12.374;2023-06-14T06:16:31;4.10;;;3.77;;
12437;SDS011;6283;51.330;12.374;2023-06-14T06:18:57;6.00;;;4.32;;
12437;SDS011;6283;51.330;12.374;2023-06-14T06:21:22;5.47;;;4.60;;
12437;SDS011;6283;51.330;12.374;2023-06-14T06:23:48;6.45;;;4.32;;
12437;SDS011;6283;51.330;12.374;2023-06-14T06:26:14;4.60;;;4.20;;
12437;SDS011;6283;51.330;12.374;2023-06-14T06:28:40;4.57;;;4.18;;
12437;SDS011;6283;51.330;12.374;2023-06-14T06:31:06;4.38;;;3.97;;
12437;SDS011;6283;51.330;12.374;2023-06-14T06:33:31;8.30;;;4.47;;
12437;SDS011;6283;51.330;12.374;2023-06-14T06:35:57;5.50;;;4.38;;
12437;SDS011;6283;51.330;12.374;2023-06-14T06:38:22;5.78;;;4.57;;
12437;SDS011;6283;51.330;12.374;2023-06-14T06:40:48;5.93;;;4.43;;
12437;SDS011;6283;51.330;12.374;2023-06-14T06:43:14;5.15;;;4.13;;
12437;SDS011;6283;51.330;12.374;2023-06-14T06:45:41;4.93;;;4.43;;
12437;SDS011;6283;51.330;12.374;2023-06-14T06:48:07;4.70;;;4.30;;
12437;SDS011;6283;51.330;12.374;2023-06-14T06:50:35;4.38;;;3.67;;
12437;SDS011;6283;51.330;12.374;2023-06-14T06:53:01;4.25;;;3.85;;
12437;SDS011;6283;51.330;12.374;2023-06-14T06:55:27;5.63;;;4.10;;
12437;SDS011;6283;51.330;12.374;2023-06-14T06:57:53;4.80;;;4.30;;
12437;SDS011;6283;51.330;12.374;2023-06-14T07:00:19;5.88;;;4.40;;
12437;SDS011;6283;51.330;12.374;2023-06-14T07:02:45;6.10;;;4.30;;
12437;SDS011;6283;51.330;12.374;2023-06-14T07:05:11;4.60;;;3.67;;
12437;SDS011;6283;51.330;12.374;2023-06-14T07:07:37;4.25;;;3.75;;
12437;SDS011;6283;51.330;12.374;2023-06-14T07:10:03;3.53;;;3.15;;
12437;SDS011;6283;51.330;12.374;2023-06-14T07:12:30;3.92;;;3.53;;
12437;SDS011;6283;51.330;12.374;2023-06-14T07:14:58;3.80;;;3.45;;
12437;SDS011;6283;51.330;12.374;2023-06-14T07:17:24;4.55;;;3.67;;
12437;SDS011;6283;51.330;12.374;2023-06-14T07:19:50;4.15;;;3.55;;
12437;SDS011;6283;51.330;12.374;2023-06-14T07:22:16;3.53;;;3.22;;
12437;SDS011;6283;51.330;12.374;2023-06-14T07:24:42;5.60;;;3.45;;
12437;SDS011;6283;51.330;12.374;2023-06-14T07:27:08;4.03;;;3.50;;
12437;SDS011;6283;51.330;12.374;2023-06-14T07:29:34;9.00;;;3.90;;
12437;SDS011;6283;51.330;12.374;2023-06-14T07:31:59;4.05;;;3.65;;
12437;SDS011;6283;51.330;12.374;2023-06-14T07:34:25;6.13;;;3.35;;
12437;SDS011;6283;51.330;12.374;2023-06-14T07:36:52;3.72;;;3.42;;
12437;SDS011;6283;51.330;12.374;2023-06-14T07:39:19;3.60;;;3.10;;
12437;SDS011;6283;51.330;12.374;2023-06-14T07:41:44;3.85;;;3.47;;
12437;SDS011;6283;51.330;12.374;2023-06-14T07:44:10;4.47;;;3.35;;
12437;SDS011;6283;51.330;12.374;2023-06-14T07:46:37;3.35;;;3.15;;
12437;SDS011;6283;51.330;12.374;2023-06-14T07:49:03;3.78;;;3.42;;
12437;SDS011;6283;51.330;12.374;2023-06-14T07:51:29;4.85;;;3.58;;
12437;SDS011;6283;51.330;12.374;2023-06-14T07:53:54;4.55;;;3.33;;
12437;SDS011;6283;51.330;12.374;2023-06-14T07:56:21;3.53;;;3.22;;
12437;SDS011;6283;51.330;12.374;2023-06-14T07:58:46;7.97;;;3.58;;
12437;SDS011;6283;51.330;12.374;2023-06-14T08:01:13;4.10;;;3.53;;
12437;SDS011;6283;51.330;12.374;2023-06-14T08:03:38;3.70;;;3.40;;
12437;SDS011;6283;51.330;12.374;2023-06-14T08:06:04;4.63;;;3.70;;
12437;SDS011;6283;51.330;12.374;2023-06-14T08:08:30;4.55;;;3.40;;
12437;SDS011;6283;51.330;12.374;2023-06-14T08:10:56;4.60;;;3.50;;
12437;SDS011;6283;51.330;12.374;2023-06-14T08:13:22;3.55;;;3.25;;
12437;SDS011;6283;51.330;12.374;2023-06-14T08:15:47;4.15;;;3.22;;
12437;SDS011;6283;51.330;12.374;2023-06-14T08:18:13;3.60;;;3.25;;
12437;SDS011;6283;51.330;12.374;2023-06-14T08:20:39;3.35;;;3.03;;
12437;SDS011;6283;51.330;12.374;2023-06-14T08:23:05;3.92;;;3.53;;
12437;SDS011;6283;51.330;12.374;2023-06-14T08:25:31;3.55;;;3.25;;
12437;SDS011;6283;51.330;12.374;2023-06-14T08:27:56;4.70;;;3.33;;
12437;SDS011;6283;51.330;12.374;2023-06-14T08:30:23;4.05;;;3.65;;
12437;SDS011;6283;51.330;12.374;2023-06-14T08:32:49;4.13;;;3.80;;
12437;SDS011;6283;51.330;12.374;2023-06-14T08:35:15;4.70;;;3.75;;
12437;SDS011;6283;51.330;12.374;2023-06-14T08:37:41;4.10;;;3.80;;
12437;SDS011;6283;51.330;12.374;2023-06-14T08:40:12;4.22;;;3.80;;
12437;SDS011;6283;51.330;12.374;2023-06-14T08:42:54;4.85;;;3.90;;
12437;SDS011;6283;51.330;12.374;2023-06-14T08:45:23;3.20;;;3.00;;
12437;SDS011;6283;51.330;12.374;2023-06-14T08:47:50;5.07;;;3.72;;
12437;SDS011;6283;51.330;12.374;2023-06-14T08:50:19;3.63;;;3.33;;
12437;SDS011;6283;51.330;12.374;2023-06-14T08:52:49;4.97;;;3.63;;
12437;SDS011;6283;51.330;12.374;2023-06-14T08:55:19;4.72;;;3.70;;
12437;SDS011;6283;51.330;12.374;2023-06-14T08:57:50;3.88;;;3.53;;
12437;SDS011;6283;51.330;12.374;2023-06-14T09:00:19;3.40;;;3.10;;
12437;SDS011;6283;51.330;12.374;2023-06-14T09:02:46;7.72;;;3.95;;
12437;SDS011;6283;51.330;12.374;2023-06-14T09:05:12;5.30;;;3.17;;
12437;SDS011;6283;51.330;12.374;2023-06-14T09:07:41;3.00;;;2.80;;
12437;SDS011;6283;51.330;12.374;2023-06-14T09:10:08;3.60;;;3.30;;
12437;SDS011;6283;51.330;12.374;2023-06-14T09:12:35;3.80;;;3.25;;
12437;SDS011;6283;51.330;12.374;2023-06-14T09:15:01;5.45;;;3.25;;
12437;SDS011;6283;51.330;12.374;2023-06-14T09:17:32;2.90;;;2.70;;
12437;SDS011;6283;51.330;12.374;2023-06-14T09:20:00;4.68;;;3.33;;
12437;SDS011;6283;51.330;12.374;2023-06-14T09:22:35;3.33;;;3.03;;
12437;SDS011;6283;51.330;12.374;2023-06-14T09:25:05;3.33;;;3.08;;
12437;SDS011;6283;51.330;12.374;2023-06-14T09:27:32;2.85;;;2.65;;
12437;SDS011;6283;51.330;12.374;2023-06-14T09:29:58;3.10;;;2.88;;
12437;SDS011;6283;51.330;12.374;2023-06-14T09:32:24;2.80;;;2.60;;
12437;SDS011;6283;51.330;12.374;2023-06-14T09:34:50;2.70;;;2.53;;
12437;SDS011;6283;51.330;12.374;2023-06-14T09:37:29;2.85;;;2.60;;
12437;SDS011;6283;51.330;12.374;2023-06-14T09:39:55;3.20;;;2.90;;
12437;SDS011;6283;51.330;12.374;2023-06-14T09:42:22;2.80;;;2.60;;
12437;SDS011;6283;51.330;12.374;2023-06-14T09:44:51;4.35;;;2.80;;
12437;SDS011;6283;51.330;12.374;2023-06-14T09:47:21;3.25;;;2.72;;
12437;SDS011;6283;51.330;12.374;2023-06-14T09:49:51;2.40;;;2.20;;
12437;SDS011;6283;51.330;12.374;2023-06-14T09:52:19;2.85;;;2.65;;
12437;SDS011;6283;51.330;12.374;2023-06-14T09:54:47;4.85;;;2.83;;
12437;SDS011;6283;51.330;12.374;2023-06-14T09:57:14;3.00;;;2.72;;
12437;SDS011;6283;51.330;12.374;2023-06-14T09:59:45;2.42;;;2.22;;
12437;SDS011;6283;51.330;12.374;2023-06-14T10:02:28;2.97;;;2.63;;
12437;SDS011;6283;51.330;12.374;2023-06-14T10:04:58;2.25;;;2.08;;
12437;SDS011;6283;51.330;12.374;2023-06-14T10:07:38;2.47;;;2.30;;
12437;SDS011;6283;51.330;12.374;2023-06-14T10:10:09;3.60;;;2.50;;
12437;SDS011;6283;51.330;12.374;2023-06-14T10:12:35;3.08;;;2.45;;
12437;SDS011;6283;51.330;12.374;2023-06-14T10:15:01;2.78;;;2.58;;
12437;SDS011;6283;51.330;12.374;2023-06-14T10:23:06;4.22;;;2.55;;
12437;SDS011;6283;51.330;12.374;2023-06-14T10:25:36;2.40;;;2.20;;
12437;SDS011;6283;51.330;12.374;2023-06-14T10:28:03;2.65;;;2.35;;
12437;SDS011;6283;51.330;12.374;2023-06-14T10:33:41;2.38;;;2.20;;
12437;SDS011;6283;51.330;12.374;2023-06-14T10:36:29;6.95;;;4.93;;
12437;SDS011;6283;51.330;12.374;2023-06-14T10:39:17;2.83;;;2.60;;
12437;SDS011;6283;51.330;12.374;2023-06-14T10:41:50;3.50;;;3.20;;
12437;SDS011;6283;51.330;12.374;2023-06-14T10:46:48;2.88;;;2.60;;
12437;SDS011;6283;51.330;12.374;2023-06-14T10:49:17;2.67;;;2.20;;
12437;SDS011;6283;51.330;12.374;2023-06-14T10:51:45;2.55;;;2.30;;
12437;SDS011;6283;51.330;12.374;2023-06-14T10:54:16;2.20;;;2.10;;
12437;SDS011;6283;51.330;12.374;2023-06-14T10:59:17;2.35;;;2.20;;
12437;SDS011;6283;51.330;12.374;2023-06-14T11:01:53;3.40;;;2.30;;
12437;SDS011;6283;51.330;12.374;2023-06-14T11:04:48;3.30;;;2.15;;
12437;SDS011;6283;51.330;12.374;2023-06-14T11:13:12;2.22;;;2.10;;
12437;SDS011;6283;51.330;12.374;2023-06-14T11:15:38;2.30;;;2.10;;
12437;SDS011;6283;51.330;12.374;2023-06-14T11:18:08;2.30;;;2.10;;
12437;SDS011;6283;51.330;12.374;2023-06-14T11:20:36;2.55;;;2.35;;
12437;SDS011;6283;51.330;12.374;2023-06-14T11:23:08;2.40;;;2.20;;
12437;SDS011;6283;51.330;12.374;2023-06-14T11:25:33;3.05;;;2.58;;
12437;SDS011;6283;51.330;12.374;2023-06-14T11:27:59;2.70;;;2.50;;
12437;SDS011;6283;51.330;12.374;2023-06-14T11:30:25;2.38;;;2.17;;
12437;SDS011;6283;51.330;12.374;2023-06-14T11:32:51;2.55;;;2.33;;
12437;SDS011;6283;51.330;12.374;2023-06-14T11:35:18;2.20;;;2.00;;
12437;SDS011;6283;51.330;12.374;2023-06-14T11:37:47;2.60;;;2.38;;
12437;SDS011;6283;51.330;12.374;2023-06-14T11:40:14;2.75;;;2.50;;
12437;SDS011;6283;51.330;12.374;2023-06-14T11:42:40;4.68;;;4.20;;
12437;SDS011;6283;51.330;12.374;2023-06-14T11:45:07;3.70;;;3.28;;
12437;SDS011;6283;51.330;12.374;2023-06-14T11:47:34;3.45;;;2.35;;
12437;SDS011;6283;51.330;12.374;2023-06-14T11:50:01;2.95;;;2.40;;
12437;SDS011;6283;51.330;12.374;2023-06-14T11:52:30;2.97;;;2.78;;
12437;SDS011;6283;51.330;12.374;2023-06-14T11:54:57;2.70;;;2.50;;
12437;SDS011;6283;51.330;12.374;2023-06-14T11:57:23;2.33;;;2.22;;
12437;SDS011;6283;51.330;12.374;2023-06-14T11:59:50;2.28;;;2.13;;
12437;SDS011;6283;51.330;12.374;2023-06-14T12:02:16;2.67;;;2.55;;
12437;SDS011;6283;51.330;12.374;2023-06-14T12:04:51;2.60;;;2.40;;
12437;SDS011;6283;51.330;12.374;2023-06-14T12:07:17;2.40;;;2.30;;
12437;SDS011;6283;51.330;12.374;2023-06-14T12:12:16;2.58;;;2.40;;
12437;SDS011;6283;51.330;12.374;2023-06-14T12:14:42;2.50;;;2.33;;
12437;SDS011;6283;51.330;12.374;2023-06-14T12:17:08;2.85;;;2.65;;
12437;SDS011;6283;51.330;12.374;2023-06-14T12:19:41;2.95;;;2.60;;
12437;SDS011;6283;51.330;12.374;2023-06-14T12:22:14;2.70;;;2.50;;
12437;SDS011;6283;51.330;12.374;2023-06-14T12:24:43;2.67;;;2.47;;
12437;SDS011;6283;51.330;12.374;2023-06-14T12:27:09;2.83;;;2.63;;
12437;SDS011;6283;51.330;12.374;2023-06-14T12:29:40;2.70;;;2.50;;
12437;SDS011;6283;51.330;12.374;2023-06-14T12:32:10;3.50;;;1.92;;
12437;SDS011;6283;51.330;12.374;2023-06-14T12:34:36;3.15;;;2.10;;
12437;SDS011;6283;51.330;12.374;2023-06-14T12:37:02;2.45;;;2.25;;
12437;SDS011;6283;51.330;12.374;2023-06-14T12:39:29;2.45;;;2.25;;
12437;SDS011;6283;51.330;12.374;2023-06-14T12:41:56;2.50;;;2.40;;
12437;SDS011;6283;51.330;12.374;2023-06-14T12:44:22;2.88;;;2.67;;
12437;SDS011;6283;51.330;12.374;2023-06-14T12:46:48;3.05;;;2.85;;
12437;SDS011;6283;51.330;12.374;2023-06-14T12:49:16;2.80;;;2.60;;
12437;SDS011;6283;51.330;12.374;2023-06-14T12:51:42;3.28;;;2.97;;
12437;SDS011;6283;51.330;12.374;2023-06-14T12:54:08;3.42;;;3.20;;
12437;SDS011;6283;51.330;12.374;2023-06-14T12:56:34;3.10;;;2.90;;
12437;SDS011;6283;51.330;12.374;2023-06-14T12:59:00;3.20;;;2.88;;
12437;SDS011;6283;51.330;12.374;2023-06-14T13:01:25;3.90;;;3.55;;
12437;SDS011;6283;51.330;12.374;2023-06-14T13:03:51;3.60;;;3.30;;
12437;SDS011;6283;51.330;12.374;2023-06-14T13:06:20;2.97;;;2.72;;
12437;SDS011;6283;51.330;12.374;2023-06-14T13:08:47;3.28;;;2.97;;
12437;SDS011;6283;51.330;12.374;2023-06-14T13:11:13;3.42;;;2.80;;
12437;SDS011;6283;51.330;12.374;2023-06-14T13:13:39;2.45;;;2.35;;
12437;SDS011;6283;51.330;12.374;2023-06-14T13:16:05;3.00;;;2.63;;
12437;SDS011;6283;51.330;12.374;2023-06-14T13:18:31;2.85;;;2.65;;
12437;SDS011;6283;51.330;12.374;2023-06-14T13:20:56;2.78;;;2.58;;
12437;SDS011;6283;51.330;12.374;2023-06-14T13:23:22;3.92;;;2.63;;
12437;SDS011;6283;51.330;12.374;2023-06-14T13:25:48;3.15;;;2.85;;
12437;SDS011;6283;51.330;12.374;2023-06-14T13:28:16;4.13;;;3.30;;
12437;SDS011;6283;51.330;12.374;2023-06-14T13:30:45;6.47;;;3.95;;
12437;SDS011;6283;51.330;12.374;2023-06-14T13:33:11;5.43;;;4.03;;
12437;SDS011;6283;51.330;12.374;2023-06-14T13:35:37;4.80;;;3.40;;
12437;SDS011;6283;51.330;12.374;2023-06-14T13:38:03;4.40;;;2.90;;
12437;SDS011;6283;51.330;12.374;2023-06-14T13:40:29;6.00;;;3.10;;
12437;SDS011;6283;51.330;12.374;2023-06-14T13:42:54;4.00;;;3.63;;
12437;SDS011;6283;51.330;12.374;2023-06-14T13:45:20;5.03;;;3.95;;
12437;SDS011;6283;51.330;12.374;2023-06-14T13:47:46;3.47;;;3.17;;
12437;SDS011;6283;51.330;12.374;2023-06-14T13:50:13;6.85;;;3.05;;
12437;SDS011;6283;51.330;12.374;2023-06-14T13:52:39;3.80;;;2.85;;
12437;SDS011;6283;51.330;12.374;2023-06-14T13:55:05;2.90;;;2.70;;
12437;SDS011;6283;51.330;12.374;2023-06-14T13:57:31;4.32;;;3.15;;
12437;SDS011;6283;51.330;12.374;2023-06-14T13:59:57;4.95;;;3.00;;
12437;SDS011;6283;51.330;12.374;2023-06-14T14:02:26;4.60;;;3.05;;
12437;SDS011;6283;51.330;12.374;2023-06-14T14:04:54;3.45;;;3.15;;
12437;SDS011;6283;51.330;12.374;2023-06-14T14:07:20;4.30;;;3.90;;
12437;SDS011;6283;51.330;12.374;2023-06-14T14:09:47;3.30;;;3.00;;
12437;SDS011;6283;51.330;12.374;2023-06-14T14:12:13;5.93;;;3.22;;
12437;SDS011;6283;51.330;12.374;2023-06-14T14:14:39;3.85;;;3.10;;
12437;SDS011;6283;51.330;12.374;2023-06-14T14:17:05;3.40;;;3.10;;
12437;SDS011;6283;51.330;12.374;2023-06-14T14:19:31;3.13;;;2.90;;
12437;SDS011;6283;51.330;12.374;2023-06-14T14:21:57;3.13;;;2.92;;
12437;SDS011;6283;51.330;12.374;2023-06-14T14:24:23;3.05;;;2.85;;
12437;SDS011;6283;51.330;12.374;2023-06-14T14:26:49;3.08;;;2.88;;
12437;SDS011;6283;51.330;12.374;2023-06-14T14:29:15;4.18;;;3.78;;
12437;SDS011;6283;51.330;12.374;2023-06-14T14:31:41;4.35;;;3.05;;
12437;SDS011;6283;51.330;12.374;2023-06-14T14:34:07;3.03;;;2.83;;
12437;SDS011;6283;51.330;12.374;2023-06-14T14:36:33;5.20;;;3.17;;
12437;SDS011;6283;51.330;12.374;2023-06-14T14:39:02;2.92;;;2.72;;
12437;SDS011;6283;51.330;12.374;2023-06-14T14:41:28;2.70;;;2.50;;
12437;SDS011;6283;51.330;12.374;2023-06-14T14:43:54;3.30;;;3.00;;
12437;SDS011;6283;51.330;12.374;2023-06-14T14:46:20;3.30;;;3.00;;
12437;SDS011;6283;51.330;12.374;2023-06-14T14:48:45;5.25;;;4.68;;
12437;SDS011;6283;51.330;12.374;2023-06-14T14:51:11;5.65;;;3.20;;
12437;SDS011;6283;51.330;12.374;2023-06-14T14:53:37;4.35;;;3.28;;
12437;SDS011;6283;51.330;12.374;2023-06-14T14:56:03;2.45;;;2.25;;
12437;SDS011;6283;51.330;12.374;2023-06-14T14:58:28;3.33;;;2.63;;
12437;SDS011;6283;51.330;12.374;2023-06-14T15:00:54;2.65;;;2.50;;
12437;SDS011;6283;51.330;12.374;2023-06-14T15:03:20;3.05;;;2.78;;
12437;SDS011;6283;51.330;12.374;2023-06-14T15:05:46;2.80;;;2.60;;
12437;SDS011;6283;51.330;12.374;2023-06-14T15:08:12;2.75;;;2.58;;
12437;SDS011;6283;51.330;12.374;2023-06-14T15:10:38;2.78;;;2.58;;
12437;SDS011;6283;51.330;12.374;2023-06-14T15:13:06;2.95;;;2.75;;
12437;SDS011;6283;51.330;12.374;2023-06-14T15:15:35;3.85;;;2.55;;
12437;SDS011;6283;51.330;12.374;2023-06-14T15:18:01;2.80;;;2.60;;